createdAt,value
2022-09-21T00:00:06.651Z,1.67
2022-09-21T00:02:37.118Z,1.90
2022-09-21T00:05:32.384Z,1.45
2022-09-21T00:08:09.027Z,2.08
2022-09-21T00:10:38.293Z,1.58
2022-09-21T00:13:32.408Z,1.98
2022-09-21T00:16:11.478Z,1.55
2022-09-21T00:18:45.278Z,1.70
2022-09-21T00:21:20.244Z,1.70
2022-09-21T00:24:00.606Z,1.63
2022-09-21T00:26:32.958Z,1.85
2022-09-21T00:29:10.785Z,2.30
2022-09-21T00:32:05.763Z,1.75
2022-09-21T00:34:46.558Z,1.50
2022-09-21T00:37:23.418Z,1.77
2022-09-21T00:40:09.022Z,1.30
2022-09-21T00:43:25.202Z,2.03
2022-09-21T00:49:10.432Z,1.70
2022-09-21T00:52:08.974Z,2.00
2022-09-21T00:55:17.018Z,1.90
2022-09-21T00:58:09.583Z,1.60
2022-09-21T01:00:50.383Z,2.13
2022-09-21T01:06:33.868Z,1.55
2022-09-21T01:09:08.688Z,1.63
2022-09-21T01:11:35.714Z,1.90
2022-09-21T01:14:35.436Z,1.60
2022-09-21T01:17:32.785Z,1.95
2022-09-21T01:20:18.624Z,2.05
2022-09-21T01:23:28.986Z,1.45
2022-09-21T01:26:22.642Z,1.80
2022-09-21T01:29:26.170Z,2.17
2022-09-21T01:32:43.060Z,2.30
2022-09-21T01:35:51.954Z,3.22
2022-09-21T01:39:07.911Z,1.67
2022-09-21T01:44:45.940Z,2.10
2022-09-21T01:50:47.605Z,2.03
2022-09-21T01:53:52.147Z,2.15
2022-09-21T01:56:29.585Z,2.15
2022-09-21T01:59:37.965Z,1.83
2022-09-21T02:02:39.197Z,2.28
2022-09-21T02:16:57.925Z,1.75
2022-09-21T02:33:51.796Z,3.47
2022-09-21T02:36:39.140Z,3.05
2022-09-21T02:39:34.469Z,2.95
2022-09-21T02:42:31.071Z,2.75
2022-09-21T02:46:04.335Z,2.70
2022-09-21T02:49:07.349Z,2.85
2022-09-21T02:52:34.886Z,3.28
2022-09-21T02:55:29.366Z,3.30
2022-09-21T03:04:11.888Z,2.85
2022-09-21T03:16:38.100Z,3.75
2022-09-21T03:19:10.660Z,3.88
2022-09-21T03:32:56.155Z,4.63
2022-09-21T03:42:22.312Z,5.43
2022-09-21T03:45:29.412Z,5.90
2022-09-21T04:07:58.881Z,6.65
2022-09-21T04:14:17.184Z,6.88
2022-09-21T04:16:45.475Z,7.07
2022-09-21T04:22:43.306Z,7.20
2022-09-21T04:31:26.833Z,7.65
2022-09-21T04:34:06.504Z,8.35
2022-09-21T04:39:33.726Z,8.73
2022-09-21T04:39:53.408Z,7.95
2022-09-21T04:42:00.816Z,7.70
2022-09-21T04:45:35.777Z,7.47
2022-09-21T04:47:39.500Z,7.32
2022-09-21T04:50:06.826Z,8.05
2022-09-21T04:52:35.841Z,7.97
2022-09-21T04:55:02.964Z,7.30
2022-09-21T04:57:29.800Z,7.07
2022-09-21T04:59:56.604Z,7.78
2022-09-21T05:02:23.422Z,8.20
2022-09-21T05:04:51.220Z,7.60
2022-09-21T05:07:18.052Z,7.10
2022-09-21T05:10:05.545Z,7.38
2022-09-21T05:12:35.978Z,7.35
2022-09-21T05:15:07.398Z,7.68
2022-09-21T05:17:38.085Z,6.68
2022-09-21T05:20:19.364Z,7.45
2022-09-21T05:22:46.095Z,6.05
2022-09-21T05:25:12.940Z,6.32
2022-09-21T05:27:40.142Z,6.53
2022-09-21T05:30:07.522Z,5.85
2022-09-21T05:32:54.597Z,5.90
2022-09-21T05:35:36.137Z,4.82
2022-09-21T05:38:46.320Z,5.47
2022-09-21T05:41:13.280Z,5.88
2022-09-21T05:43:40.084Z,6.07
2022-09-21T05:46:39.411Z,5.97
2022-09-21T05:49:48.463Z,5.78
2022-09-21T05:53:00.405Z,5.67
2022-09-21T05:55:56.530Z,5.85
2022-09-21T05:58:41.012Z,7.07
2022-09-21T06:01:34.503Z,5.97
2022-09-21T06:04:03.229Z,7.53
2022-09-21T06:06:30.040Z,9.53
2022-09-21T06:08:56.623Z,10.60
2022-09-21T06:11:23.688Z,10.23
2022-09-21T06:13:50.418Z,10.38
2022-09-21T06:16:17.064Z,9.77
2022-09-21T06:18:43.703Z,11.33
2022-09-21T06:21:10.636Z,10.95
2022-09-21T06:23:37.280Z,10.77
2022-09-21T06:26:04.794Z,9.73
2022-09-21T06:28:31.679Z,8.68
2022-09-21T06:30:58.673Z,7.38
2022-09-21T06:33:25.478Z,7.43
2022-09-21T06:35:57.124Z,7.30
2022-09-21T06:38:24.670Z,7.63
2022-09-21T06:40:55.312Z,7.88
2022-09-21T06:43:23.126Z,7.45
2022-09-21T06:45:58.378Z,7.90
2022-09-21T06:48:35.612Z,7.60
2022-09-21T06:51:04.589Z,8.38
2022-09-21T06:53:32.711Z,7.40
2022-09-21T06:56:07.756Z,8.10
2022-09-21T06:58:35.393Z,8.27
2022-09-21T07:01:10.344Z,8.00
2022-09-21T07:03:37.774Z,7.80
2022-09-21T07:06:05.143Z,7.43
2022-09-21T07:11:20.066Z,6.60
2022-09-21T07:13:49.864Z,6.57
2022-09-21T07:16:16.934Z,6.78
2022-09-21T07:18:44.542Z,6.75
2022-09-21T07:21:12.092Z,6.28
2022-09-21T07:23:39.314Z,5.28
2022-09-21T07:26:12.395Z,4.45
2022-09-21T07:28:40.815Z,4.68
2022-09-21T07:31:14.092Z,4.38
2022-09-21T07:33:41.721Z,4.03
2022-09-21T07:36:13.343Z,3.83
2022-09-21T07:38:43.535Z,3.63
2022-09-21T07:41:14.456Z,3.97
2022-09-21T07:43:41.771Z,3.40
2022-09-21T07:52:05.771Z,2.75
2022-09-21T07:54:35.988Z,2.78
2022-09-21T07:57:21.032Z,2.90
2022-09-21T07:59:47.602Z,2.38
2022-09-21T08:02:14.361Z,2.63
2022-09-21T08:04:42.283Z,2.72
2022-09-21T08:07:10.872Z,2.42
2022-09-21T08:09:40.219Z,1.88
2022-09-21T08:12:07.735Z,2.25
2022-09-21T08:14:35.534Z,2.45
2022-09-21T08:17:02.542Z,2.03
2022-09-21T08:19:29.057Z,2.45
2022-09-21T08:22:08.370Z,2.10
2022-09-21T08:24:35.686Z,1.95
2022-09-21T08:27:02.299Z,2.28
2022-09-21T08:29:30.262Z,1.50
2022-09-21T08:31:57.018Z,1.38
2022-09-21T08:34:24.231Z,1.30
2022-09-21T08:36:55.226Z,1.00
2022-09-21T08:39:22.134Z,1.00
2022-09-21T08:42:03.140Z,1.30
2022-09-21T08:44:38.887Z,0.75
2022-09-21T08:47:22.615Z,1.05
2022-09-21T08:49:57.318Z,1.10
2022-09-21T08:52:25.245Z,1.00
2022-09-21T08:54:51.731Z,0.95
2022-09-21T08:57:19.278Z,0.88
2022-09-21T08:59:47.947Z,1.08
2022-09-21T09:02:34.150Z,0.93
2022-09-21T09:05:20.065Z,0.90
2022-09-21T09:08:18.017Z,0.82
2022-09-21T09:11:11.300Z,0.95
2022-09-21T09:14:03.952Z,0.90
2022-09-21T09:16:47.727Z,0.90
2022-09-21T09:19:20.125Z,0.98
2022-09-21T09:21:47.143Z,0.90
2022-09-21T09:24:35.695Z,1.02
2022-09-21T09:27:22.571Z,1.10
2022-09-21T09:29:58.334Z,0.90
2022-09-21T09:33:02.171Z,1.23
2022-09-21T09:35:36.316Z,0.90
2022-09-21T09:38:18.590Z,0.93
2022-09-21T09:41:24.040Z,0.95
2022-09-21T09:43:59.325Z,1.08
2022-09-21T09:46:30.344Z,0.68
2022-09-21T09:49:26.479Z,0.75
2022-09-21T09:51:53.617Z,0.77
2022-09-21T09:54:23.495Z,0.70
2022-09-21T09:56:50.010Z,0.88
2022-09-21T09:59:26.090Z,1.13
2022-09-21T10:02:18.511Z,0.90
2022-09-21T10:05:03.707Z,0.93
2022-09-21T10:07:41.953Z,1.00
2022-09-21T10:10:30.213Z,0.90
2022-09-21T10:13:06.043Z,0.90
2022-09-21T10:15:32.852Z,0.80
2022-09-21T10:18:12.167Z,1.08
2022-09-21T10:20:38.785Z,0.95
2022-09-21T10:23:05.771Z,0.82
2022-09-21T10:25:34.832Z,1.25
2022-09-21T10:28:05.939Z,1.20
2022-09-21T10:30:35.937Z,1.13
2022-09-21T10:33:03.109Z,0.90
2022-09-21T10:35:30.437Z,1.17
2022-09-21T10:38:22.023Z,1.00
2022-09-21T10:40:49.455Z,1.02
2022-09-21T10:43:37.610Z,1.05
2022-09-21T10:46:06.589Z,1.15
2022-09-21T10:48:33.626Z,1.17
2022-09-21T10:51:00.312Z,1.20
2022-09-21T10:53:29.951Z,0.75
2022-09-21T10:56:20.739Z,1.00
2022-09-21T10:59:10.692Z,1.10
2022-09-21T11:01:46.800Z,0.98
2022-09-21T11:04:40.682Z,0.95
2022-09-21T11:07:20.188Z,0.93
2022-09-21T11:10:09.708Z,0.60
2022-09-21T11:12:52.742Z,1.15
2022-09-21T11:15:52.886Z,0.95
2022-09-21T11:18:33.410Z,0.98
2022-09-21T11:21:13.548Z,1.00
2022-09-21T11:24:17.252Z,0.70
2022-09-21T11:27:11.389Z,0.75
2022-09-21T11:30:03.089Z,0.90
2022-09-21T11:33:06.738Z,0.70
2022-09-21T11:35:36.330Z,0.90
2022-09-21T11:38:11.822Z,0.90
2022-09-21T11:40:50.458Z,0.93
2022-09-21T11:44:01.213Z,0.98
2022-09-21T11:47:03.197Z,1.10
2022-09-21T11:50:07.755Z,0.70
2022-09-21T11:52:51.130Z,0.90
2022-09-21T11:55:55.358Z,0.82
2022-09-21T11:58:41.817Z,0.80
2022-09-21T12:01:27.158Z,0.85
2022-09-21T12:04:20.595Z,0.90
2022-09-21T12:07:00.232Z,0.80
2022-09-21T12:09:39.165Z,1.48
2022-09-21T12:12:12.281Z,1.10
2022-09-21T12:15:18.896Z,0.75
2022-09-21T12:17:55.504Z,0.80
2022-09-21T12:20:38.104Z,1.15
2022-09-21T12:23:18.016Z,0.65
2022-09-21T12:25:51.255Z,0.63
2022-09-21T12:28:30.606Z,0.80
2022-09-21T12:31:02.494Z,0.70
2022-09-21T12:33:43.030Z,0.98
2022-09-21T12:36:17.268Z,0.73
2022-09-21T12:38:59.512Z,0.93
2022-09-21T12:41:51.930Z,0.80
2022-09-21T12:44:54.465Z,0.70
2022-09-21T12:47:41.245Z,0.60
2022-09-21T12:50:26.907Z,0.80
2022-09-21T12:52:54.678Z,0.80
2022-09-21T12:55:41.604Z,0.75
2022-09-21T12:59:07.920Z,0.60
2022-09-21T13:01:46.048Z,0.65
2022-09-21T13:04:45.973Z,0.70
2022-09-21T13:07:30.155Z,0.90
2022-09-21T13:09:57.876Z,0.90
2022-09-21T13:12:32.974Z,0.68
2022-09-21T13:15:12.219Z,0.60
2022-09-21T13:17:39.651Z,0.65
2022-09-21T13:20:19.376Z,0.70
2022-09-21T13:22:48.858Z,0.73
2022-09-21T13:25:15.374Z,0.93
2022-09-21T13:28:03.878Z,0.75
2022-09-21T13:30:35.655Z,0.68
2022-09-21T13:33:04.416Z,0.88
2022-09-21T13:36:00.841Z,0.47
2022-09-21T13:38:41.041Z,0.60
2022-09-21T13:41:19.729Z,0.75
2022-09-21T13:43:48.144Z,0.90
2022-09-21T13:46:36.402Z,0.75
2022-09-21T13:49:05.621Z,0.70
2022-09-21T13:51:35.621Z,0.50
2022-09-21T13:54:03.493Z,0.70
2022-09-21T13:56:33.240Z,0.70
2022-09-21T13:59:00.089Z,0.50
2022-09-21T14:01:46.899Z,0.63
2022-09-21T14:04:31.812Z,0.80
2022-09-21T14:07:07.106Z,0.70
2022-09-21T14:09:54.880Z,0.80
2022-09-21T14:12:25.194Z,0.80
2022-09-21T14:15:17.379Z,0.75
2022-09-21T14:17:44.572Z,0.85
2022-09-21T14:20:37.115Z,0.95
2022-09-21T14:23:14.456Z,0.65
2022-09-21T14:25:49.109Z,0.52
2022-09-21T14:28:18.228Z,0.70
2022-09-21T14:30:56.292Z,0.50
2022-09-21T14:33:29.069Z,0.63
2022-09-21T14:35:57.838Z,2.40
2022-09-21T14:38:28.743Z,0.60
2022-09-21T14:41:05.327Z,0.90
2022-09-21T14:43:35.087Z,0.52
2022-09-21T14:46:36.147Z,0.93
2022-09-21T14:49:38.331Z,0.60
2022-09-21T14:52:32.087Z,0.70
2022-09-21T14:55:34.029Z,0.73
2022-09-21T14:58:22.524Z,0.70
2022-09-21T15:00:49.894Z,0.70
2022-09-21T15:03:28.640Z,0.80
2022-09-21T15:06:45.287Z,0.40
2022-09-21T15:09:48.892Z,0.52
2022-09-21T15:12:25.355Z,0.55
2022-09-21T15:15:13.290Z,0.70
2022-09-21T15:17:59.162Z,0.82
2022-09-21T15:20:29.458Z,0.40
2022-09-21T15:23:00.458Z,0.80
2022-09-21T15:25:31.754Z,0.70
2022-09-21T15:27:59.958Z,0.82
2022-09-21T15:30:29.228Z,0.70
2022-09-21T15:32:58.867Z,0.70
2022-09-21T15:35:30.648Z,0.63
2022-09-21T15:38:00.766Z,0.60
2022-09-21T15:40:46.210Z,0.82
2022-09-21T15:43:16.730Z,0.90
2022-09-21T15:45:58.068Z,0.77
2022-09-21T15:48:33.046Z,0.75
2022-09-21T15:51:09.853Z,0.50
2022-09-21T15:53:48.410Z,0.90
2022-09-21T15:56:21.990Z,0.90
2022-09-21T15:58:49.917Z,0.73
2022-09-21T16:01:23.286Z,0.80
2022-09-21T16:04:03.021Z,0.70
2022-09-21T16:06:41.577Z,0.50
2022-09-21T16:09:34.252Z,0.80
2022-09-21T16:12:20.999Z,0.77
2022-09-21T16:14:55.330Z,0.77
2022-09-21T16:17:26.360Z,0.73
2022-09-21T16:19:56.200Z,1.02
2022-09-21T16:22:38.706Z,0.60
2022-09-21T16:25:23.253Z,0.65
2022-09-21T16:27:59.895Z,0.68
2022-09-21T16:30:51.094Z,0.75
2022-09-21T16:33:37.604Z,0.70
2022-09-21T16:36:25.649Z,1.02
2022-09-21T16:38:56.099Z,0.63
2022-09-21T16:41:24.785Z,0.70
2022-09-21T16:43:52.036Z,0.88
2022-09-21T16:46:18.910Z,0.47
2022-09-21T16:48:45.508Z,0.60
2022-09-21T16:51:13.222Z,0.55
2022-09-21T16:53:39.919Z,1.10
2022-09-21T16:56:15.267Z,0.95
2022-09-21T16:58:43.958Z,0.80
2022-09-21T17:01:12.915Z,0.50
2022-09-21T17:03:40.212Z,0.70
2022-09-21T17:06:18.658Z,1.08
2022-09-21T17:08:49.385Z,1.00
2022-09-21T17:11:20.124Z,1.38
2022-09-21T17:13:51.034Z,1.80
2022-09-21T17:16:20.293Z,1.63
2022-09-21T17:18:48.496Z,1.80
2022-09-21T17:21:16.415Z,1.50
2022-09-21T17:23:43.232Z,2.15
2022-09-21T17:26:21.395Z,1.50
2022-09-21T17:28:48.178Z,1.15
2022-09-21T17:31:16.839Z,1.20
2022-09-21T17:33:43.848Z,1.02
2022-09-21T17:36:14.898Z,1.20
2022-09-21T17:38:45.024Z,1.13
2022-09-21T17:41:41.413Z,1.00
2022-09-21T17:44:15.761Z,1.40
2022-09-21T17:47:00.212Z,1.38
2022-09-21T17:49:27.153Z,1.08
2022-09-21T17:52:12.440Z,1.48
2022-09-21T17:54:39.846Z,1.20
2022-09-21T17:57:40.967Z,1.02
2022-09-21T18:00:20.633Z,1.73
2022-09-21T18:02:48.708Z,1.00
2022-09-21T18:05:27.752Z,0.90
2022-09-21T18:08:38.330Z,1.00
2022-09-21T18:11:24.749Z,1.40
2022-09-21T18:14:13.204Z,1.40
2022-09-21T18:16:51.848Z,1.70
2022-09-21T18:19:39.026Z,1.73
2022-09-21T18:22:18.148Z,1.20
2022-09-21T18:24:45.409Z,1.67
2022-09-21T18:27:12.533Z,2.30
2022-09-21T18:29:41.441Z,2.00
2022-09-21T18:32:20.366Z,2.33
2022-09-21T18:35:04.040Z,2.80
2022-09-21T18:37:57.808Z,4.00
2022-09-21T18:40:36.980Z,3.55
2022-09-21T18:43:33.679Z,3.20
2022-09-21T18:46:11.177Z,3.33
2022-09-21T18:49:26.805Z,2.95
2022-09-21T18:52:05.295Z,2.80
2022-09-21T18:54:32.055Z,3.17
2022-09-21T18:56:59.122Z,3.72
2022-09-21T18:59:31.050Z,3.53
2022-09-21T19:01:59.180Z,5.55
2022-09-21T19:04:26.508Z,7.80
2022-09-21T19:07:19.104Z,14.20
2022-09-21T19:09:54.206Z,18.00
2022-09-21T19:13:05.883Z,7.18
2022-09-21T19:16:01.681Z,3.05
2022-09-21T19:18:33.254Z,3.03
2022-09-21T19:21:27.216Z,3.00
2022-09-21T19:24:14.907Z,3.45
2022-09-21T19:27:19.131Z,4.03
2022-09-21T19:30:04.835Z,3.58
2022-09-21T19:32:52.134Z,3.45
2022-09-21T19:35:21.049Z,3.10
2022-09-21T19:37:48.796Z,3.13
2022-09-21T19:40:17.444Z,2.47
2022-09-21T19:43:13.274Z,2.75
2022-09-21T19:45:54.995Z,2.40
2022-09-21T19:48:27.310Z,2.47
2022-09-21T19:50:57.092Z,2.65
2022-09-21T19:53:43.291Z,2.22
2022-09-21T19:56:32.452Z,2.42
2022-09-21T19:59:18.844Z,1.90
2022-09-21T20:01:54.768Z,2.20
2022-09-21T20:04:36.503Z,2.28
2022-09-21T20:07:11.527Z,2.33
2022-09-21T20:09:43.826Z,2.30
2022-09-21T20:12:24.855Z,2.03
2022-09-21T20:15:04.483Z,2.20
2022-09-21T20:17:43.473Z,2.28
2022-09-21T20:20:21.131Z,2.33
2022-09-21T20:22:48.349Z,2.50
2022-09-21T20:25:24.209Z,2.45
2022-09-21T20:27:53.512Z,2.38
2022-09-21T20:30:24.605Z,3.15
2022-09-21T20:32:55.571Z,3.28
2022-09-21T20:35:25.960Z,4.25
2022-09-21T20:37:52.862Z,3.92
2022-09-21T20:40:24.573Z,4.05
2022-09-21T20:42:52.259Z,4.38
2022-09-21T20:45:19.628Z,4.47
2022-09-21T20:47:49.469Z,5.05
2022-09-21T20:50:16.558Z,4.60
2022-09-21T20:52:45.079Z,4.90
2022-09-21T20:55:20.287Z,4.85
2022-09-21T20:57:46.945Z,4.78
2022-09-21T21:00:16.014Z,5.43
2022-09-21T21:02:43.022Z,4.80
2022-09-21T21:05:11.196Z,4.93
2022-09-21T21:07:39.841Z,4.72
2022-09-21T21:10:06.655Z,4.78
2022-09-21T21:12:33.336Z,3.97
2022-09-21T21:14:59.976Z,3.45
2022-09-21T21:17:26.641Z,4.10
2022-09-21T21:19:53.373Z,3.60
2022-09-21T21:22:20.125Z,3.35
2022-09-21T21:24:54.356Z,3.25
2022-09-21T21:27:22.951Z,3.38
2022-09-21T21:29:51.207Z,3.50
2022-09-21T21:32:19.695Z,3.88
2022-09-21T21:34:46.934Z,3.60
2022-09-21T21:37:43.431Z,3.10
2022-09-21T21:44:17.456Z,3.20
2022-09-21T21:46:54.841Z,2.85
2022-09-21T21:49:21.745Z,2.77
2022-09-21T21:51:49.410Z,2.60
2022-09-21T21:54:17.510Z,2.67
2022-09-21T21:56:45.063Z,2.00
2022-09-21T21:59:17.474Z,2.55
2022-09-21T22:01:44.768Z,2.50
2022-09-21T22:04:11.884Z,2.10
2022-09-21T22:06:39.771Z,2.33
2022-09-21T22:09:09.034Z,2.20
2022-09-21T22:11:36.417Z,2.38
2022-09-21T22:14:04.686Z,2.17
2022-09-21T22:16:33.757Z,1.98
2022-09-21T22:19:03.202Z,2.05
2022-09-21T22:21:32.436Z,2.15
2022-09-21T22:24:04.722Z,1.80
2022-09-21T22:26:36.788Z,2.10
2022-09-21T22:29:05.104Z,2.30
2022-09-21T22:31:39.019Z,2.38
2022-09-21T22:34:06.348Z,2.90
2022-09-21T22:36:34.476Z,2.50
2022-09-21T22:39:01.417Z,2.40
2022-09-21T22:41:30.252Z,1.98
2022-09-21T22:43:58.362Z,2.50
2022-09-21T22:46:26.307Z,2.40
2022-09-21T22:48:53.209Z,2.87
2022-09-21T22:51:21.313Z,2.80
2022-09-21T22:53:49.223Z,2.60
2022-09-21T22:56:18.914Z,3.27
2022-09-21T22:58:48.164Z,3.30
2022-09-21T23:01:26.408Z,3.00
2022-09-21T23:03:59.298Z,3.00
2022-09-21T23:06:28.077Z,4.20
2022-09-21T23:08:57.316Z,4.20
2022-09-21T23:11:28.368Z,4.03
2022-09-21T23:13:56.550Z,4.50
2022-09-21T23:16:24.403Z,4.50
2022-09-21T23:18:51.772Z,4.80
2022-09-21T23:21:20.862Z,5.53
2022-09-21T23:23:48.568Z,5.20
2022-09-21T23:26:19.117Z,5.60
2022-09-21T23:28:53.566Z,6.17
2022-09-21T23:31:20.967Z,5.80
2022-09-21T23:33:52.768Z,6.63
2022-09-21T23:36:22.600Z,6.10
2022-09-21T23:38:50.487Z,5.83
2022-09-21T23:41:20.308Z,5.40
2022-09-21T23:43:47.971Z,6.43
2022-09-21T23:46:17.493Z,6.73
2022-09-21T23:48:44.527Z,6.27
2022-09-21T23:51:11.845Z,7.03
2022-09-21T23:53:38.946Z,7.00
2022-09-21T23:56:06.690Z,7.00
2022-09-21T23:58:34.042Z,6.60
